createdAt,value
2018-09-01T00:02:09.136Z,2.10
2018-09-01T00:04:36.181Z,2.10
2018-09-01T00:07:03.272Z,2.30
2018-09-01T00:09:30.426Z,2.43
2018-09-01T00:11:57.501Z,2.20
2018-09-01T00:14:24.687Z,2.33
2018-09-01T00:16:51.803Z,2.30
2018-09-01T00:19:18.896Z,2.43
2018-09-01T00:21:46.032Z,2.87
2018-09-01T00:24:13.102Z,3.20
2018-09-01T00:26:41.985Z,2.43
2018-09-01T00:29:09.073Z,2.50
2018-09-01T00:31:36.391Z,2.60
2018-09-01T00:34:03.753Z,2.40
2018-09-01T00:36:30.906Z,2.23
2018-09-01T00:39:05.059Z,2.53
2018-09-01T00:41:32.561Z,2.60
2018-09-01T00:43:59.650Z,2.40
2018-09-01T00:46:26.859Z,2.13
2018-09-01T00:48:54.053Z,2.30
2018-09-01T00:51:21.368Z,2.43
2018-09-01T00:53:48.786Z,1.60
2018-09-01T00:56:15.893Z,2.00
2018-09-01T00:58:42.985Z,1.97
2018-09-01T01:01:10.090Z,2.10
2018-09-01T01:03:37.190Z,2.27
2018-09-01T01:06:04.317Z,2.37
2018-09-01T01:08:31.406Z,2.00
2018-09-01T01:10:58.495Z,2.40
2018-09-01T01:13:25.591Z,2.10
2018-09-01T01:15:52.673Z,2.00
2018-09-01T01:18:19.766Z,1.93
2018-09-01T01:20:46.849Z,2.07
2018-09-01T01:23:13.978Z,2.03
2018-09-01T01:25:41.066Z,2.17
2018-09-01T01:28:08.206Z,2.33
2018-09-01T01:30:35.276Z,2.20
2018-09-01T01:33:02.397Z,2.40
2018-09-01T01:35:29.477Z,2.20
2018-09-01T01:37:56.565Z,2.27
2018-09-01T01:40:24.017Z,2.10
2018-09-01T01:42:51.113Z,2.10
2018-09-01T01:45:18.207Z,2.13
2018-09-01T01:47:45.618Z,2.30
2018-09-01T01:50:12.721Z,2.50
2018-09-01T01:52:39.870Z,2.40
2018-09-01T01:55:07.081Z,2.17
2018-09-01T01:57:38.513Z,2.80
2018-09-01T02:00:06.134Z,2.20
2018-09-01T02:02:33.233Z,2.50
2018-09-01T02:05:00.322Z,2.23
2018-09-01T02:07:27.418Z,2.30
2018-09-01T02:09:54.505Z,2.33
2018-09-01T02:12:21.606Z,2.47
2018-09-01T02:14:48.693Z,2.20
2018-09-01T02:17:15.987Z,2.20
2018-09-01T02:19:43.058Z,2.20
2018-09-01T02:22:10.150Z,2.40
2018-09-01T02:24:37.567Z,2.33
2018-09-01T02:27:04.652Z,2.40
2018-09-01T02:29:31.745Z,2.50
2018-09-01T02:31:58.837Z,2.60
2018-09-01T02:34:25.929Z,2.37
2018-09-01T02:36:53.017Z,2.27
2018-09-01T02:39:20.126Z,2.63
2018-09-01T02:41:47.307Z,2.30
2018-09-01T02:44:14.374Z,2.40
2018-09-01T02:46:41.469Z,2.27
2018-09-01T02:49:08.557Z,2.30
2018-09-01T02:51:35.667Z,2.30
2018-09-01T02:54:02.794Z,2.00
2018-09-01T02:56:29.880Z,2.20
2018-09-01T02:58:56.982Z,2.60
2018-09-01T03:01:29.606Z,2.20
2018-09-01T03:03:56.802Z,2.37
2018-09-01T03:06:23.891Z,2.30
2018-09-01T03:08:50.994Z,2.57
2018-09-01T03:11:18.089Z,2.10
2018-09-01T03:13:45.182Z,2.60
2018-09-01T03:16:12.254Z,2.30
2018-09-01T03:18:39.354Z,2.70
2018-09-01T03:21:06.437Z,2.37
2018-09-01T03:23:33.525Z,2.40
2018-09-01T03:26:00.704Z,2.20
2018-09-01T03:28:27.789Z,2.70
2018-09-01T03:30:54.886Z,2.43
2018-09-01T03:33:21.970Z,2.10
2018-09-01T03:35:49.189Z,2.33
2018-09-01T03:38:16.280Z,2.00
2018-09-01T03:40:43.454Z,2.10
2018-09-01T03:43:10.546Z,1.90
2018-09-01T03:45:37.645Z,2.20
2018-09-01T03:48:04.909Z,2.00
2018-09-01T03:50:31.985Z,2.23
2018-09-01T03:52:59.102Z,2.07
2018-09-01T03:55:26.210Z,2.10
2018-09-01T03:57:53.309Z,2.10
2018-09-01T04:00:22.949Z,2.20
2018-09-01T04:02:50.030Z,2.40
2018-09-01T04:05:17.122Z,2.10
2018-09-01T04:07:44.218Z,2.00
2018-09-01T04:10:11.324Z,2.60
2018-09-01T04:12:38.438Z,2.37
2018-09-01T04:15:05.985Z,2.40
2018-09-01T04:17:33.081Z,2.23
2018-09-01T04:20:00.278Z,2.00
2018-09-01T04:22:27.370Z,2.20
2018-09-01T04:24:54.457Z,2.37
2018-09-01T04:27:21.560Z,2.77
2018-09-01T04:29:48.653Z,2.00
2018-09-01T04:32:15.746Z,1.83
2018-09-01T04:34:42.832Z,2.00
2018-09-01T04:37:09.921Z,2.00
2018-09-01T04:39:37.014Z,2.30
2018-09-01T04:42:04.089Z,2.17
2018-09-01T04:44:31.181Z,2.20
2018-09-01T04:46:58.566Z,2.40
2018-09-01T04:49:25.621Z,2.17
2018-09-01T04:51:52.718Z,2.30
2018-09-01T04:54:19.818Z,2.20
2018-09-01T04:56:46.943Z,2.10
2018-09-01T04:59:14.029Z,2.17
2018-09-01T05:01:41.155Z,2.20
2018-09-01T05:04:08.242Z,2.03
2018-09-01T05:06:35.333Z,2.30
2018-09-01T05:09:02.511Z,1.87
2018-09-01T05:11:29.600Z,2.30
2018-09-01T05:13:56.694Z,2.07
2018-09-01T05:16:23.793Z,1.97
2018-09-01T05:18:51.126Z,2.07
2018-09-01T05:21:18.222Z,1.90
2018-09-01T05:23:45.303Z,2.40
2018-09-01T05:26:12.389Z,2.07
2018-09-01T05:28:39.485Z,2.07
2018-09-01T05:31:06.582Z,2.10
2018-09-01T05:33:33.901Z,2.10
2018-09-01T05:36:01.000Z,2.50
2018-09-01T05:38:28.101Z,2.60
2018-09-01T05:40:55.203Z,2.33
2018-09-01T05:43:22.806Z,2.47
2018-09-01T05:45:49.898Z,2.60
2018-09-01T05:48:16.990Z,2.50
2018-09-01T05:50:44.304Z,2.43
2018-09-01T05:53:11.448Z,2.20
2018-09-01T05:55:38.623Z,2.40
2018-09-01T05:58:08.190Z,2.23
2018-09-01T06:00:35.974Z,2.33
2018-09-01T06:03:03.243Z,2.40
2018-09-01T06:05:31.662Z,2.53
2018-09-01T06:07:58.744Z,2.33
2018-09-01T06:10:25.833Z,2.30
2018-09-01T06:12:52.957Z,2.47
2018-09-01T06:15:20.069Z,2.40
2018-09-01T06:17:47.217Z,2.50
2018-09-01T06:20:14.263Z,2.00
2018-09-01T06:22:41.541Z,2.30
2018-09-01T06:25:08.633Z,2.37
2018-09-01T06:27:40.329Z,2.63
2018-09-01T06:30:10.701Z,2.37
2018-09-01T06:32:37.756Z,2.33
2018-09-01T06:35:05.490Z,2.57
2018-09-01T06:37:32.653Z,2.30
2018-09-01T06:39:59.742Z,2.37
2018-09-01T06:42:26.829Z,2.07
2018-09-01T06:44:53.982Z,2.30
2018-09-01T06:47:21.074Z,2.50
2018-09-01T06:49:48.167Z,2.60
2018-09-01T06:52:15.341Z,2.33
2018-09-01T06:54:42.738Z,2.70
2018-09-01T06:57:09.841Z,2.50
2018-09-01T06:59:36.945Z,2.57
2018-09-01T07:02:04.052Z,2.60
2018-09-01T07:04:31.138Z,2.63
2018-09-01T07:06:58.225Z,2.60
2018-09-01T07:09:25.440Z,2.87
2018-09-01T07:11:52.538Z,2.63
2018-09-01T07:14:19.621Z,3.10
2018-09-01T07:16:46.756Z,2.90
2018-09-01T07:19:13.841Z,2.63
2018-09-01T07:21:41.466Z,2.90
2018-09-01T07:24:08.650Z,2.37
2018-09-01T07:26:35.750Z,2.70
2018-09-01T07:29:03.035Z,2.60
2018-09-01T07:31:30.633Z,2.50
2018-09-01T07:33:57.354Z,2.57
2018-09-01T07:36:24.456Z,2.90
2018-09-01T07:38:51.541Z,3.60
2018-09-01T07:41:18.637Z,3.07
2018-09-01T07:43:47.206Z,3.30
2018-09-01T07:46:14.349Z,3.50
2018-09-01T07:48:41.457Z,3.40
2018-09-01T07:51:08.554Z,2.97
2018-09-01T07:53:35.649Z,3.40
2018-09-01T07:56:05.664Z,3.30
2018-09-01T07:58:32.768Z,3.10
2018-09-01T08:00:59.862Z,2.53
2018-09-01T08:03:26.987Z,3.10
2018-09-01T08:05:54.079Z,3.00
2018-09-01T08:08:21.191Z,2.63
2018-09-01T08:10:48.582Z,2.93
2018-09-01T08:13:15.666Z,2.80
2018-09-01T08:15:42.943Z,2.40
2018-09-01T08:18:10.002Z,2.43
2018-09-01T08:20:37.412Z,2.57
2018-09-01T08:23:04.745Z,2.23
2018-09-01T08:25:32.106Z,2.70
2018-09-01T08:27:59.257Z,2.53
2018-09-01T08:30:26.334Z,2.30
2018-09-01T08:32:53.431Z,2.60
2018-09-01T08:35:20.813Z,2.23
2018-09-01T08:37:47.917Z,2.17
2018-09-01T08:40:15.034Z,2.60
2018-09-01T08:42:42.097Z,2.33
2018-09-01T08:45:09.217Z,2.40
2018-09-01T08:47:36.258Z,2.33
2018-09-01T08:50:03.378Z,2.47
2018-09-01T08:52:30.474Z,1.97
2018-09-01T08:54:57.584Z,1.70
2018-09-01T08:57:24.661Z,2.10
2018-09-01T08:59:51.762Z,1.83
2018-09-01T09:02:18.846Z,2.10
2018-09-01T09:04:45.937Z,1.80
2018-09-01T09:07:13.044Z,1.97
2018-09-01T09:09:40.124Z,1.80
2018-09-01T09:12:07.497Z,2.10
2018-09-01T09:14:34.593Z,1.77
2018-09-01T09:17:01.727Z,1.90
2018-09-01T09:19:28.822Z,1.40
2018-09-01T09:21:55.922Z,1.40
2018-09-01T09:24:23.005Z,1.27
2018-09-01T09:26:50.173Z,1.40
2018-09-01T09:29:17.274Z,1.20
2018-09-01T09:31:44.352Z,1.13
2018-09-01T09:34:11.471Z,1.20
2018-09-01T09:36:38.556Z,1.20
2018-09-01T09:39:06.492Z,1.43
2018-09-01T09:41:33.577Z,1.07
2018-09-01T09:44:00.674Z,1.27
2018-09-01T09:46:27.770Z,1.43
2018-09-01T09:48:54.873Z,1.30
2018-09-01T09:51:21.965Z,1.60
2018-09-01T09:53:49.053Z,1.50
2018-09-01T09:56:16.175Z,1.30
2018-09-01T09:58:43.273Z,1.27
2018-09-01T10:01:15.877Z,1.50
2018-09-01T10:03:43.045Z,1.40
2018-09-01T10:06:10.143Z,1.20
2018-09-01T10:08:37.246Z,1.30
2018-09-01T10:11:04.398Z,1.10
2018-09-01T10:13:31.505Z,1.20
2018-09-01T10:15:58.625Z,1.57
2018-09-01T10:18:25.683Z,1.23
2018-09-01T10:20:53.098Z,1.17
2018-09-01T10:23:20.582Z,1.30
2018-09-01T10:25:47.770Z,1.20
2018-09-01T10:28:14.842Z,1.33
2018-09-01T10:30:42.013Z,1.10
2018-09-01T10:33:09.130Z,1.63
2018-09-01T10:35:36.311Z,1.00
2018-09-01T10:38:03.388Z,1.17
2018-09-01T10:40:30.481Z,1.30
2018-09-01T10:42:57.574Z,1.17
2018-09-01T10:45:24.683Z,1.10
2018-09-01T10:47:51.834Z,1.10
2018-09-01T10:50:18.870Z,1.10
2018-09-01T10:52:45.984Z,1.17
2018-09-01T10:55:13.063Z,1.00
2018-09-01T10:57:40.181Z,0.87
2018-09-01T11:00:07.438Z,1.00
2018-09-01T11:02:34.555Z,0.80
2018-09-01T11:05:01.698Z,1.13
2018-09-01T11:07:28.780Z,1.20
2018-09-01T11:09:55.856Z,1.03
2018-09-01T11:12:22.948Z,1.10
2018-09-01T11:14:50.038Z,1.00
2018-09-01T11:17:17.155Z,1.20
2018-09-01T11:19:44.264Z,0.90
2018-09-01T11:22:11.414Z,1.10
2018-09-01T11:24:38.506Z,1.20
2018-09-01T11:27:05.612Z,0.93
2018-09-01T11:29:32.713Z,1.10
2018-09-01T11:31:59.823Z,1.07
2018-09-01T11:34:26.927Z,1.10
2018-09-01T11:36:54.161Z,1.30
2018-09-01T11:39:21.161Z,1.37
2018-09-01T11:41:48.255Z,1.13
2018-09-01T11:44:15.354Z,1.10
2018-09-01T11:46:42.441Z,1.20
2018-09-01T11:49:09.590Z,1.20
2018-09-01T11:51:36.677Z,1.20
2018-09-01T11:54:03.777Z,1.30
2018-09-01T11:56:30.870Z,1.30
2018-09-01T11:58:58.075Z,1.30
2018-09-01T12:01:25.070Z,1.20
2018-09-01T12:03:52.163Z,1.20
2018-09-01T12:06:19.275Z,1.27
2018-09-01T12:08:46.379Z,1.40
2018-09-01T12:11:13.881Z,1.40
2018-09-01T12:13:40.969Z,1.20
2018-09-01T12:16:08.084Z,1.20
2018-09-01T12:18:36.294Z,1.23
2018-09-01T12:21:03.402Z,1.30
2018-09-01T12:23:30.498Z,1.30
2018-09-01T12:25:57.589Z,1.30
2018-09-01T12:28:24.901Z,1.30
2018-09-01T12:30:51.865Z,1.33
2018-09-01T12:33:18.961Z,1.30
2018-09-01T12:35:46.061Z,1.33
2018-09-01T12:38:13.177Z,1.40
2018-09-01T12:40:40.271Z,1.30
2018-09-01T12:43:07.382Z,1.30
2018-09-01T12:45:34.483Z,1.40
2018-09-01T12:48:01.582Z,1.47
2018-09-01T12:50:28.676Z,1.40
2018-09-01T12:52:55.925Z,1.80
2018-09-01T12:55:22.969Z,1.50
2018-09-01T12:57:50.077Z,1.27
2018-09-01T13:00:17.180Z,1.37
2018-09-01T13:02:44.302Z,1.70
2018-09-01T13:05:11.474Z,1.90
2018-09-01T13:07:38.582Z,1.37
2018-09-01T13:10:05.697Z,1.60
2018-09-01T13:12:32.806Z,1.40
2018-09-01T13:14:59.905Z,1.93
2018-09-01T13:17:26.994Z,1.60
2018-09-01T13:19:54.145Z,1.53
2018-09-01T13:22:21.272Z,1.70
2018-09-01T13:24:48.356Z,1.83
2018-09-01T13:27:15.637Z,1.60
2018-09-01T13:29:45.634Z,1.70
2018-09-01T13:32:14.374Z,1.47
2018-09-01T13:34:42.970Z,1.60
2018-09-01T13:37:11.421Z,1.50
2018-09-01T13:39:39.893Z,1.80
2018-09-01T13:42:06.988Z,1.70
2018-09-01T13:44:34.150Z,1.90
2018-09-01T13:47:03.562Z,1.87
2018-09-01T13:49:33.398Z,1.60
2018-09-01T13:52:03.006Z,1.60
2018-09-01T13:54:32.666Z,2.40
2018-09-01T13:56:59.810Z,1.70
2018-09-01T13:59:26.917Z,1.80
2018-09-01T14:01:54.025Z,1.73
2018-09-01T14:04:21.108Z,1.70
2018-09-01T14:06:48.220Z,1.80
2018-09-01T14:09:15.349Z,2.07
2018-09-01T14:11:42.441Z,1.87
2018-09-01T14:14:09.536Z,1.77
2018-09-01T14:16:36.689Z,2.00
2018-09-01T14:19:03.784Z,1.70
2018-09-01T14:21:30.997Z,1.70
2018-09-01T14:23:58.119Z,1.33
2018-09-01T14:26:25.246Z,1.57
2018-09-01T14:28:52.397Z,2.00
2018-09-01T14:31:19.498Z,1.77
2018-09-01T14:33:46.801Z,1.50
2018-09-01T14:36:13.906Z,1.87
2018-09-01T14:38:41.037Z,1.70
2018-09-01T14:41:08.161Z,1.80
2018-09-01T14:43:35.341Z,1.80
2018-09-01T14:46:02.433Z,1.80
2018-09-01T14:48:29.559Z,1.80
2018-09-01T14:50:56.730Z,1.70
2018-09-01T14:53:29.293Z,1.90
2018-09-01T14:55:56.490Z,1.80
2018-09-01T14:58:24.662Z,1.90
2018-09-01T15:00:51.757Z,1.77
2018-09-01T15:03:18.880Z,1.73
2018-09-01T15:05:45.969Z,1.97
2018-09-01T15:08:13.057Z,1.77
2018-09-01T15:10:40.164Z,1.90
2018-09-01T15:13:07.275Z,1.87
2018-09-01T15:18:15.617Z,2.07
2018-09-01T15:20:42.726Z,1.87
2018-09-01T15:23:09.866Z,1.60
2018-09-01T15:25:36.968Z,1.60
2018-09-01T15:28:04.088Z,2.07
2018-09-01T15:30:31.194Z,2.33
2018-09-01T15:32:58.309Z,2.23
2018-09-01T15:35:25.424Z,2.03
2018-09-01T15:37:52.533Z,2.17
2018-09-01T15:40:19.713Z,2.20
2018-09-01T15:42:46.777Z,2.43
2018-09-01T15:45:13.885Z,2.50
2018-09-01T15:47:41.017Z,2.03
2018-09-01T15:50:08.142Z,2.20
2018-09-01T15:52:35.252Z,1.50
2018-09-01T15:55:02.373Z,1.80
2018-09-01T15:57:29.842Z,1.70
2018-09-01T15:59:57.078Z,1.80
2018-09-01T16:02:24.464Z,1.60
2018-09-01T16:04:51.613Z,1.40
2018-09-01T16:07:18.709Z,1.60
2018-09-01T16:09:45.810Z,1.67
2018-09-01T16:12:13.192Z,1.70
2018-09-01T16:14:40.369Z,1.63
2018-09-01T16:17:07.547Z,1.70
2018-09-01T16:19:34.645Z,2.03
2018-09-01T16:22:01.754Z,2.10
2018-09-01T16:24:28.903Z,2.00
2018-09-01T16:26:56.022Z,2.67
2018-09-01T16:29:23.206Z,1.83
2018-09-01T16:31:50.378Z,2.00
2018-09-01T16:34:17.544Z,2.03
2018-09-01T16:36:44.638Z,1.80
2018-09-01T16:39:11.758Z,2.03
2018-09-01T16:41:38.936Z,1.43
2018-09-01T16:44:06.041Z,1.70
2018-09-01T16:46:33.166Z,1.70
2018-09-01T16:49:00.395Z,1.70
2018-09-01T16:51:27.550Z,1.67
2018-09-01T16:53:54.648Z,1.63
2018-09-01T16:56:21.844Z,2.30
2018-09-01T16:58:48.917Z,1.90
2018-09-01T17:01:16.134Z,1.53
2018-09-01T17:03:43.285Z,2.07
2018-09-01T17:06:10.457Z,1.60
2018-09-01T17:08:37.553Z,1.73
2018-09-01T17:11:04.653Z,1.80
2018-09-01T17:13:31.842Z,1.80
2018-09-01T17:15:59.006Z,1.80
2018-09-01T17:18:26.129Z,1.73
2018-09-01T17:20:53.305Z,2.30
2018-09-01T17:23:20.476Z,1.80
2018-09-01T17:25:47.584Z,2.07
2018-09-01T17:28:14.685Z,2.20
2018-09-01T17:30:41.785Z,1.87
2018-09-01T17:33:08.964Z,2.10
2018-09-01T17:35:36.141Z,2.00
2018-09-01T17:38:03.253Z,1.50
2018-09-01T17:40:30.361Z,1.67
2018-09-01T17:42:57.498Z,1.73
2018-09-01T17:45:24.587Z,1.67
2018-09-01T17:47:51.681Z,1.70
2018-09-01T17:50:18.805Z,1.90
2018-09-01T17:52:45.886Z,2.10
2018-09-01T17:55:13.104Z,2.10
2018-09-01T17:57:40.275Z,1.63
2018-09-01T18:00:07.388Z,1.77
2018-09-01T18:02:35.827Z,1.70
2018-09-01T18:05:03.005Z,1.90
2018-09-01T18:07:30.168Z,1.60
2018-09-01T18:09:57.297Z,1.47
2018-09-01T18:12:24.401Z,1.60
2018-09-01T18:14:51.519Z,1.97
2018-09-01T18:17:18.625Z,2.03
2018-09-01T18:19:45.731Z,2.60
2018-09-01T18:22:13.037Z,2.73
2018-09-01T18:24:40.257Z,2.83
2018-09-01T18:27:07.537Z,2.70
2018-09-01T18:29:34.652Z,2.37
2018-09-01T18:32:01.738Z,3.13
2018-09-01T18:34:28.828Z,2.83
2018-09-01T18:36:55.948Z,2.40
2018-09-01T18:39:23.041Z,2.30
2018-09-01T18:41:50.196Z,2.03
2018-09-01T18:44:17.394Z,2.00
2018-09-01T18:46:44.606Z,1.80
2018-09-01T18:49:11.704Z,1.70
2018-09-01T18:51:38.810Z,2.10
2018-09-01T18:54:05.980Z,2.00
2018-09-01T18:56:33.021Z,1.90
2018-09-01T18:59:01.226Z,1.67
2018-09-01T19:01:28.286Z,2.30
2018-09-01T19:03:55.386Z,2.50
2018-09-01T19:06:22.635Z,2.20
2018-09-01T19:08:49.712Z,2.20
2018-09-01T19:11:16.817Z,2.00
2018-09-01T19:13:43.961Z,3.97
2018-09-01T19:16:11.108Z,4.20
2018-09-01T19:18:38.261Z,4.50
2018-09-01T19:21:05.417Z,3.70
2018-09-01T19:23:32.587Z,3.20
2018-09-01T19:26:03.089Z,3.40
2018-09-01T19:28:30.194Z,3.13
2018-09-01T19:30:57.362Z,2.87
2018-09-01T19:33:24.495Z,2.40
2018-09-01T19:35:51.695Z,2.40
2018-09-01T19:38:18.820Z,2.67
2018-09-01T19:40:45.929Z,2.70
2018-09-01T19:43:13.051Z,2.70
2018-09-01T19:45:40.341Z,2.73
2018-09-01T19:48:07.279Z,2.50
2018-09-01T19:50:34.429Z,2.23
2018-09-01T19:53:01.509Z,2.50
2018-09-01T19:55:28.733Z,2.20
2018-09-01T19:57:55.834Z,2.23
2018-09-01T20:00:22.933Z,2.10
2018-09-01T20:02:50.406Z,2.70
2018-09-01T20:05:17.547Z,2.63
2018-09-01T20:07:44.632Z,2.97
2018-09-01T20:10:11.760Z,3.63
2018-09-01T20:12:38.862Z,4.20
2018-09-01T20:15:05.966Z,4.43
2018-09-01T20:17:33.053Z,3.70
2018-09-01T20:20:00.149Z,3.17
2018-09-01T20:22:27.241Z,3.00
2018-09-01T20:24:54.562Z,3.40
2018-09-01T20:27:21.810Z,3.13
2018-09-01T20:29:48.975Z,3.47
2018-09-01T20:32:16.090Z,3.60
2018-09-01T20:34:47.211Z,3.47
2018-09-01T20:37:15.390Z,4.90
2018-09-01T20:39:42.950Z,4.13
2018-09-01T20:42:10.072Z,5.83
2018-09-01T20:44:37.181Z,7.87
2018-09-01T20:47:04.349Z,6.90
2018-09-01T20:49:31.458Z,6.10
2018-09-01T20:51:58.591Z,4.20
2018-09-01T20:54:25.833Z,3.40
2018-09-01T20:56:52.942Z,4.40
2018-09-01T20:59:20.101Z,4.70
2018-09-01T21:01:47.280Z,3.67
2018-09-01T21:04:14.456Z,3.60
2018-09-01T21:06:41.605Z,3.30
2018-09-01T21:09:09.506Z,3.17
2018-09-01T21:11:36.681Z,2.70
2018-09-01T21:14:03.784Z,2.90
2018-09-01T21:16:31.037Z,2.70
2018-09-01T21:19:00.097Z,2.57
2018-09-01T21:21:28.518Z,2.70
2018-09-01T21:23:55.609Z,2.73
2018-09-01T21:26:22.786Z,2.50
2018-09-01T21:28:50.045Z,2.80
2018-09-01T21:31:17.256Z,2.70
2018-09-01T21:33:44.349Z,2.80
2018-09-01T21:36:11.715Z,2.40
2018-09-01T21:38:38.813Z,2.93
2018-09-01T21:41:05.905Z,3.00
2018-09-01T21:43:33.002Z,2.90
2018-09-01T21:46:00.168Z,2.80
2018-09-01T21:48:27.261Z,2.90
2018-09-01T21:50:54.374Z,3.00
2018-09-01T21:53:21.474Z,2.63
2018-09-01T21:55:48.589Z,2.90
2018-09-01T21:58:15.775Z,2.80
2018-09-01T22:00:48.301Z,2.87
2018-09-01T22:03:15.401Z,2.73
2018-09-01T22:05:42.505Z,2.80
2018-09-01T22:08:09.609Z,2.53
2018-09-01T22:10:36.695Z,2.90
2018-09-01T22:13:03.794Z,2.90
2018-09-01T22:15:30.894Z,2.87
2018-09-01T22:17:58.023Z,2.80
2018-09-01T22:20:25.114Z,2.90
2018-09-01T22:22:52.241Z,2.70
2018-09-01T22:25:19.338Z,3.33
2018-09-01T22:27:46.444Z,2.97
2018-09-01T22:30:13.534Z,2.60
2018-09-01T22:32:40.662Z,2.77
2018-09-01T22:35:07.761Z,2.60
2018-09-01T22:37:34.890Z,2.23
2018-09-01T22:40:01.998Z,2.67
2018-09-01T22:42:29.338Z,2.80
2018-09-01T22:44:56.433Z,2.87
2018-09-01T22:47:26.577Z,2.70
2018-09-01T22:49:53.682Z,3.13
2018-09-01T22:52:20.817Z,2.77
2018-09-01T22:54:47.922Z,2.90
2018-09-01T22:57:15.035Z,2.73
2018-09-01T22:59:42.116Z,3.20
2018-09-01T23:02:09.237Z,2.83
2018-09-01T23:04:36.350Z,3.60
2018-09-01T23:07:03.470Z,2.97
2018-09-01T23:09:30.660Z,3.03
2018-09-01T23:11:57.737Z,2.83
2018-09-01T23:14:24.914Z,3.13
2018-09-01T23:16:52.053Z,2.90
2018-09-01T23:19:19.153Z,3.03
2018-09-01T23:21:46.570Z,3.17
2018-09-01T23:24:13.689Z,3.13
2018-09-01T23:26:40.773Z,3.20
2018-09-01T23:29:07.883Z,3.00
2018-09-01T23:31:34.988Z,3.00
2018-09-01T23:34:02.185Z,2.70
2018-09-01T23:36:29.257Z,3.13
2018-09-01T23:38:56.353Z,2.93
2018-09-01T23:41:23.570Z,3.20
2018-09-01T23:43:50.650Z,3.47
2018-09-01T23:46:17.770Z,3.33
2018-09-01T23:48:44.860Z,2.80
2018-09-01T23:51:11.953Z,3.10
2018-09-01T23:53:39.053Z,2.93
2018-09-01T23:56:06.154Z,3.17
2018-09-01T23:58:33.241Z,2.60
